createdAt,value
2023-04-08T00:01:19.446Z,10.38
2023-04-08T00:03:46.643Z,10.15
2023-04-08T00:06:13.761Z,11.43
2023-04-08T00:08:41.059Z,14.27
2023-04-08T00:11:08.377Z,13.90
2023-04-08T00:13:35.342Z,18.95
2023-04-08T00:16:03.037Z,16.27
2023-04-08T00:18:29.959Z,18.08
2023-04-08T00:20:57.325Z,15.82
2023-04-08T00:23:24.339Z,15.52
2023-04-08T00:25:52.222Z,18.63
2023-04-08T00:28:19.165Z,18.17
2023-04-08T00:30:46.341Z,20.60
2023-04-08T00:33:13.428Z,26.27
2023-04-08T00:35:40.396Z,26.08
2023-04-08T00:38:08.169Z,21.65
2023-04-08T00:40:35.708Z,26.10
2023-04-08T00:43:02.969Z,23.02
2023-04-08T00:45:30.432Z,29.08
2023-04-08T00:47:57.429Z,25.92
2023-04-08T00:50:24.660Z,24.88
2023-04-08T00:52:51.719Z,27.67
2023-04-08T00:55:18.517Z,24.13
2023-04-08T00:57:46.684Z,29.25
2023-04-08T01:00:15.198Z,27.25
2023-04-08T01:03:08.618Z,28.42
2023-04-08T01:06:11.520Z,26.85
2023-04-08T01:08:42.028Z,31.77
2023-04-08T01:11:12.427Z,29.73
2023-04-08T01:13:42.423Z,29.08
2023-04-08T01:16:13.665Z,27.90
2023-04-08T01:18:44.082Z,29.33
2023-04-08T01:21:13.295Z,28.70
2023-04-08T01:24:07.085Z,29.80
2023-04-08T01:26:35.696Z,27.23
2023-04-08T01:29:03.488Z,31.27
2023-04-08T01:31:31.753Z,28.70
2023-04-08T01:34:01.280Z,30.33
2023-04-08T01:36:29.731Z,31.58
2023-04-08T01:38:57.550Z,28.17
2023-04-08T01:41:24.859Z,29.38
2023-04-08T01:43:52.935Z,30.83
2023-04-08T01:46:21.902Z,28.98
2023-04-08T01:48:50.097Z,29.63
2023-04-08T01:51:18.146Z,28.00
2023-04-08T01:53:45.427Z,50.40
2023-04-08T01:56:14.358Z,35.42
2023-04-08T01:58:53.557Z,34.10
2023-04-08T02:01:26.098Z,30.85
2023-04-08T02:03:57.328Z,32.22
2023-04-08T02:06:27.626Z,38.47
2023-04-08T02:08:55.717Z,33.22
2023-04-08T02:11:22.843Z,33.05
2023-04-08T02:13:51.471Z,30.60
2023-04-08T02:16:36.897Z,35.28
2023-04-08T02:19:20.762Z,33.47
2023-04-08T02:21:56.578Z,37.30
2023-04-08T02:24:24.139Z,34.55
2023-04-08T02:26:52.151Z,32.00
2023-04-08T02:29:19.745Z,34.83
2023-04-08T02:31:49.328Z,34.78
2023-04-08T02:34:17.888Z,37.97
2023-04-08T02:36:47.279Z,35.33
2023-04-08T02:39:14.660Z,37.08
2023-04-08T02:41:41.748Z,35.08
2023-04-08T02:44:10.048Z,35.40
2023-04-08T02:46:40.791Z,38.78
2023-04-08T02:49:07.822Z,36.97
2023-04-08T02:51:34.903Z,32.28
2023-04-08T02:54:01.808Z,36.15
2023-04-08T02:56:28.836Z,33.53
2023-04-08T02:58:56.247Z,36.63
2023-04-08T03:01:23.208Z,41.20
2023-04-08T03:03:50.469Z,35.67
2023-04-08T03:06:17.562Z,35.33
2023-04-08T03:08:44.875Z,35.15
2023-04-08T03:11:12.160Z,37.72
2023-04-08T03:13:39.208Z,33.33
2023-04-08T03:16:06.889Z,34.03
2023-04-08T03:18:34.059Z,38.53
2023-04-08T03:21:03.370Z,34.45
2023-04-08T03:23:30.255Z,34.45
2023-04-08T03:25:57.267Z,38.88
2023-04-08T03:28:24.360Z,44.50
2023-04-08T03:30:51.360Z,35.40
2023-04-08T03:33:18.403Z,34.40
2023-04-08T03:35:45.366Z,36.33
2023-04-08T03:38:12.487Z,32.50
2023-04-08T03:40:39.483Z,36.72
2023-04-08T03:43:08.662Z,34.88
2023-04-08T03:45:35.858Z,40.17
2023-04-08T03:48:03.228Z,43.83
2023-04-08T03:50:30.407Z,40.08
2023-04-08T03:52:57.438Z,37.50
2023-04-08T03:55:24.296Z,41.45
2023-04-08T03:57:51.190Z,45.13
2023-04-08T04:00:18.151Z,41.67
2023-04-08T04:02:45.358Z,41.50
2023-04-08T04:05:12.245Z,45.30
2023-04-08T04:07:39.340Z,39.50
2023-04-08T04:10:07.039Z,43.60
2023-04-08T04:12:34.066Z,41.53
2023-04-08T04:15:01.335Z,39.97
2023-04-08T04:17:28.281Z,42.13
2023-04-08T04:19:55.396Z,41.75
2023-04-08T04:22:22.404Z,37.03
2023-04-08T04:24:49.821Z,42.05
2023-04-08T04:27:18.288Z,35.33
2023-04-08T04:29:45.215Z,43.20
2023-04-08T04:32:12.329Z,43.03
2023-04-08T04:34:39.291Z,38.05
2023-04-08T04:37:06.269Z,38.80
2023-04-08T04:39:33.198Z,37.55
2023-04-08T04:42:00.269Z,43.00
2023-04-08T04:44:27.387Z,38.45
2023-04-08T04:46:54.414Z,40.40
2023-04-08T04:49:21.578Z,44.20
2023-04-08T04:51:49.186Z,40.90
2023-04-08T04:54:16.050Z,43.85
2023-04-08T04:56:42.936Z,38.05
2023-04-08T04:59:09.805Z,42.03
2023-04-08T05:01:36.921Z,39.05
2023-04-08T05:04:03.866Z,41.47
2023-04-08T05:06:30.863Z,39.78
2023-04-08T05:08:57.726Z,45.22
2023-04-08T05:11:24.794Z,42.03
2023-04-08T05:13:51.753Z,41.58
2023-04-08T05:16:18.757Z,46.95
2023-04-08T05:18:45.802Z,42.03
2023-04-08T05:21:12.830Z,49.08
2023-04-08T05:23:39.783Z,44.78
2023-04-08T05:26:09.948Z,51.30
2023-04-08T05:28:37.175Z,45.80
2023-04-08T05:31:04.494Z,43.55
2023-04-08T05:33:31.531Z,48.55
2023-04-08T05:35:58.580Z,47.90
2023-04-08T05:38:25.770Z,46.13
2023-04-08T05:40:52.883Z,47.60
2023-04-08T05:43:19.864Z,47.78
2023-04-08T05:45:47.159Z,50.70
2023-04-08T05:48:14.246Z,48.05
2023-04-08T05:50:41.370Z,53.53
2023-04-08T05:53:08.276Z,51.55
2023-04-08T05:55:35.148Z,49.47
2023-04-08T05:58:02.215Z,52.00
2023-04-08T06:00:29.215Z,50.63
2023-04-08T06:02:56.790Z,49.63
2023-04-08T06:05:24.182Z,50.72
2023-04-08T06:07:51.103Z,54.28
2023-04-08T06:10:18.171Z,54.20
2023-04-08T06:12:45.521Z,54.28
2023-04-08T06:15:12.493Z,49.92
2023-04-08T06:17:39.900Z,49.15
2023-04-08T06:20:09.128Z,52.72
2023-04-08T06:22:36.816Z,54.83
2023-04-08T06:25:04.420Z,46.00
2023-04-08T06:27:31.385Z,50.05
2023-04-08T06:29:58.359Z,59.88
2023-04-08T06:32:25.413Z,52.30
2023-04-08T06:34:52.313Z,53.72
2023-04-08T06:37:19.216Z,50.42
2023-04-08T06:40:51.179Z,48.08
2023-04-08T06:43:18.110Z,47.42
2023-04-08T06:45:45.155Z,48.63
2023-04-08T06:48:12.234Z,48.13
2023-04-08T06:50:39.036Z,54.00
2023-04-08T06:53:06.213Z,48.58
2023-04-08T06:55:33.052Z,50.63
2023-04-08T06:58:01.918Z,47.10
2023-04-08T07:00:28.876Z,49.95
2023-04-08T07:02:55.934Z,47.33
2023-04-08T07:05:22.924Z,48.42
2023-04-08T07:07:49.973Z,49.78
2023-04-08T07:10:16.889Z,46.60
2023-04-08T07:12:43.893Z,51.55
2023-04-08T07:15:11.259Z,52.72
2023-04-08T07:17:39.631Z,44.53
2023-04-08T07:20:07.898Z,44.35
2023-04-08T07:22:35.170Z,46.67
2023-04-08T07:25:02.980Z,47.38
2023-04-08T07:27:30.063Z,46.03
2023-04-08T07:29:57.944Z,45.38
2023-04-08T07:32:25.207Z,50.10
2023-04-08T07:34:52.221Z,44.88
2023-04-08T07:37:19.164Z,45.55
2023-04-08T07:39:46.267Z,42.58
2023-04-08T07:42:13.275Z,43.45
2023-04-08T07:44:40.397Z,43.03
2023-04-08T07:47:07.408Z,41.03
2023-04-08T07:49:34.507Z,41.92
2023-04-08T07:52:01.496Z,41.55
2023-04-08T07:54:28.647Z,44.03
2023-04-08T07:56:55.730Z,40.85
2023-04-08T07:59:22.802Z,42.90
2023-04-08T08:01:49.798Z,50.28
2023-04-08T08:04:16.994Z,48.65
2023-04-08T08:06:44.473Z,52.08
2023-04-08T08:09:11.337Z,42.25
2023-04-08T08:11:38.538Z,42.90
2023-04-08T08:14:06.026Z,45.40
2023-04-08T08:16:33.640Z,40.47
2023-04-08T08:19:01.221Z,42.85
2023-04-08T08:21:28.278Z,38.80
2023-04-08T08:23:55.416Z,42.97
2023-04-08T08:26:23.012Z,36.70
2023-04-08T08:28:50.044Z,43.38
2023-04-08T08:31:17.064Z,36.85
2023-04-08T08:33:44.191Z,41.13
2023-04-08T08:36:11.151Z,36.00
2023-04-08T08:38:38.198Z,37.92
2023-04-08T08:41:05.395Z,33.78
2023-04-08T08:43:33.576Z,35.70
2023-04-08T08:46:00.728Z,31.55
2023-04-08T08:48:27.874Z,31.40
2023-04-08T08:50:55.024Z,32.25
2023-04-08T08:53:23.154Z,32.28
2023-04-08T08:56:16.305Z,31.55
2023-04-08T08:58:38.589Z,31.05
2023-04-08T09:01:37.350Z,31.92
2023-04-08T09:04:18.578Z,27.65
2023-04-08T09:06:51.546Z,32.67
2023-04-08T09:09:18.679Z,32.58
2023-04-08T09:11:47.480Z,32.08
2023-04-08T09:14:22.735Z,29.10
2023-04-08T09:16:50.996Z,31.27
2023-04-08T09:19:18.872Z,33.55
2023-04-08T09:21:46.092Z,32.40
2023-04-08T09:24:30.380Z,29.27
2023-04-08T09:26:57.593Z,31.10
2023-04-08T09:29:28.150Z,29.75
2023-04-08T09:31:59.460Z,33.28
2023-04-08T09:34:29.020Z,32.72
2023-04-08T09:36:56.375Z,36.25
2023-04-08T09:39:23.906Z,29.00
2023-04-08T09:41:52.639Z,32.83
2023-04-08T09:44:26.613Z,30.38
2023-04-08T09:47:09.005Z,30.77
2023-04-08T09:49:47.790Z,32.45
2023-04-08T09:52:24.091Z,33.47
2023-04-08T09:55:06.805Z,29.65
2023-04-08T09:57:47.857Z,25.90
2023-04-08T10:00:17.311Z,25.02
2023-04-08T10:03:34.407Z,29.30
2023-04-08T10:06:03.552Z,26.90
2023-04-08T10:08:32.945Z,29.17
2023-04-08T10:11:00.432Z,24.88
2023-04-08T10:13:28.600Z,27.50
2023-04-08T10:16:31.847Z,27.02
2023-04-08T10:18:59.733Z,27.20
2023-04-08T10:21:37.118Z,25.73
2023-04-08T10:24:11.013Z,24.73
2023-04-08T10:26:40.680Z,25.98
2023-04-08T10:29:21.233Z,23.75
2023-04-08T10:31:50.895Z,24.65
2023-04-08T10:34:22.756Z,25.55
2023-04-08T10:36:49.964Z,26.20
2023-04-08T10:39:17.573Z,23.95
2023-04-08T10:41:49.627Z,29.08
2023-04-08T10:44:27.557Z,29.00
2023-04-08T10:46:55.842Z,27.67
2023-04-08T10:49:22.915Z,26.65
2023-04-08T10:51:50.120Z,25.85
2023-04-08T10:54:18.878Z,26.42
2023-04-08T10:56:52.394Z,28.50
2023-04-08T10:59:32.883Z,26.65
2023-04-08T11:02:01.658Z,24.50
2023-04-08T11:04:29.147Z,28.10
2023-04-08T11:06:56.872Z,24.60
2023-04-08T11:09:24.306Z,28.80
2023-04-08T11:11:54.909Z,26.05
2023-04-08T11:14:24.161Z,26.35
2023-04-08T11:16:54.149Z,30.48
2023-04-08T11:19:21.839Z,23.55
2023-04-08T11:21:51.786Z,25.10
2023-04-08T11:24:19.731Z,25.95
2023-04-08T11:26:47.269Z,27.10
2023-04-08T11:29:15.953Z,22.48
2023-04-08T11:31:44.543Z,21.15
2023-04-08T11:34:12.238Z,22.13
2023-04-08T11:36:41.568Z,18.05
2023-04-08T11:39:12.404Z,19.25
2023-04-08T11:41:40.395Z,16.73
2023-04-08T11:44:08.086Z,15.35
2023-04-08T11:46:36.538Z,13.20
2023-04-08T11:49:09.966Z,15.25
2023-04-08T11:51:56.385Z,11.40
2023-04-08T11:54:32.204Z,11.30
2023-04-08T11:56:59.891Z,11.43
2023-04-08T11:59:29.373Z,10.98
2023-04-08T12:01:57.060Z,10.65
2023-04-08T12:04:24.579Z,8.30
2023-04-08T12:06:52.254Z,8.07
2023-04-08T12:09:19.511Z,8.52
2023-04-08T12:11:46.750Z,9.13
2023-04-08T12:14:14.657Z,8.18
2023-04-08T12:16:42.041Z,10.00
2023-04-08T12:19:09.184Z,7.32
2023-04-08T12:21:36.235Z,7.75
2023-04-08T12:24:03.475Z,9.82
2023-04-08T12:26:30.600Z,7.10
2023-04-08T12:28:57.796Z,7.57
2023-04-08T12:31:25.083Z,8.70
2023-04-08T12:33:52.420Z,8.75
2023-04-08T12:36:19.476Z,7.05
2023-04-08T12:38:47.010Z,8.85
2023-04-08T12:41:15.469Z,9.68
2023-04-08T12:43:42.764Z,8.52
2023-04-08T12:46:09.795Z,8.65
2023-04-08T12:48:36.879Z,8.57
2023-04-08T12:52:24.653Z,8.30
2023-04-08T12:54:51.698Z,8.32
2023-04-08T12:57:18.874Z,8.95
2023-04-08T12:59:45.809Z,9.45
2023-04-08T13:02:12.782Z,9.07
2023-04-08T13:04:39.801Z,8.95
2023-04-08T13:07:07.680Z,9.73
2023-04-08T13:09:34.805Z,7.05
2023-04-08T13:12:02.141Z,8.05
2023-04-08T13:14:29.187Z,8.70
2023-04-08T13:16:56.143Z,7.38
2023-04-08T13:19:23.256Z,8.20
2023-04-08T13:21:50.224Z,11.18
2023-04-08T13:24:18.155Z,8.68
2023-04-08T13:26:45.368Z,8.88
2023-04-08T13:29:12.485Z,9.00
2023-04-08T13:31:39.725Z,10.60
2023-04-08T13:34:06.711Z,8.90
2023-04-08T13:36:33.674Z,9.65
2023-04-08T13:39:00.644Z,8.82
2023-04-08T13:41:28.468Z,9.05
2023-04-08T13:43:56.666Z,9.55
2023-04-08T13:46:23.938Z,8.45
2023-04-08T13:48:51.382Z,8.77
2023-04-08T13:51:18.718Z,7.70
2023-04-08T13:53:45.752Z,10.35
2023-04-08T13:56:12.801Z,8.30
2023-04-08T13:58:39.907Z,8.57
2023-04-08T14:01:07.073Z,8.43
2023-04-08T14:03:34.056Z,8.68
2023-04-08T14:06:02.079Z,8.90
2023-04-08T14:08:29.118Z,8.63
2023-04-08T14:10:57.251Z,8.90
2023-04-08T14:13:24.183Z,7.95
2023-04-08T14:15:53.722Z,7.65
2023-04-08T14:18:21.285Z,7.93
2023-04-08T14:20:48.452Z,6.47
2023-04-08T14:23:16.949Z,6.93
2023-04-08T14:25:44.270Z,7.60
2023-04-08T14:28:11.496Z,6.75
2023-04-08T14:30:38.520Z,6.90
2023-04-08T14:33:06.277Z,7.07
2023-04-08T14:35:33.370Z,6.95
2023-04-08T14:38:00.791Z,7.70
2023-04-08T14:40:27.883Z,8.32
2023-04-08T14:42:55.080Z,12.38
2023-04-08T14:45:22.259Z,8.57
2023-04-08T14:47:49.656Z,8.13
2023-04-08T14:50:16.944Z,6.82
2023-04-08T14:52:45.221Z,6.75
2023-04-08T14:55:12.632Z,6.93
2023-04-08T14:57:39.648Z,8.68
2023-04-08T15:00:07.764Z,7.47
2023-04-08T15:02:34.951Z,7.50
2023-04-08T15:05:02.017Z,9.13
2023-04-08T15:07:29.047Z,7.65
2023-04-08T15:09:56.886Z,7.65
2023-04-08T15:12:24.522Z,7.90
2023-04-08T15:14:51.771Z,6.97
2023-04-08T15:17:18.906Z,10.95
2023-04-08T15:19:46.795Z,7.43
2023-04-08T15:22:14.167Z,8.55
2023-04-08T15:24:42.538Z,7.22
2023-04-08T15:27:09.607Z,8.32
2023-04-08T15:29:36.764Z,7.90
2023-04-08T15:32:03.797Z,8.02
2023-04-08T15:34:30.948Z,7.35
2023-04-08T15:36:58.376Z,7.32
2023-04-08T15:39:26.198Z,7.82
2023-04-08T15:41:53.470Z,7.72
2023-04-08T15:44:20.533Z,8.18
2023-04-08T15:46:47.653Z,10.77
2023-04-08T15:49:14.993Z,10.65
2023-04-08T15:51:44.519Z,9.27
2023-04-08T15:54:11.841Z,7.95
2023-04-08T15:56:38.822Z,9.32
2023-04-08T15:59:05.882Z,9.35
2023-04-08T16:01:33.227Z,9.23
2023-04-08T16:04:00.830Z,8.85
2023-04-08T16:06:28.119Z,8.32
2023-04-08T16:08:55.758Z,9.38
2023-04-08T16:11:23.727Z,14.82
2023-04-08T16:13:51.016Z,10.07
2023-04-08T16:16:18.084Z,12.68
2023-04-08T16:18:46.937Z,12.95
2023-04-08T16:21:14.591Z,10.82
2023-04-08T16:23:42.026Z,9.60
2023-04-08T16:26:08.989Z,12.45
2023-04-08T16:28:37.071Z,12.40
2023-04-08T16:31:04.337Z,10.68
2023-04-08T16:33:32.155Z,14.38
2023-04-08T16:36:04.165Z,11.52
2023-04-08T16:38:31.390Z,11.82
2023-04-08T16:40:59.225Z,13.57
2023-04-08T16:43:26.412Z,12.77
2023-04-08T16:45:54.029Z,12.98
2023-04-08T16:48:21.088Z,15.55
2023-04-08T16:50:47.958Z,14.73
2023-04-08T16:53:14.920Z,18.20
2023-04-08T16:55:41.811Z,17.17
2023-04-08T16:58:08.899Z,15.98
2023-04-08T17:00:36.385Z,17.73
2023-04-08T17:03:03.751Z,15.85
2023-04-08T17:05:31.014Z,17.75
2023-04-08T17:07:58.027Z,18.05
2023-04-08T17:10:25.343Z,22.42
2023-04-08T17:12:53.084Z,20.13
2023-04-08T17:15:20.015Z,20.60
2023-04-08T17:17:48.081Z,20.85
2023-04-08T17:20:15.835Z,21.95
2023-04-08T17:22:43.117Z,25.05
2023-04-08T17:25:11.544Z,23.33
2023-04-08T17:27:38.675Z,24.27
2023-04-08T17:30:06.414Z,20.83
2023-04-08T17:32:34.209Z,26.23
2023-04-08T17:35:02.186Z,24.67
2023-04-08T17:37:29.227Z,25.25
2023-04-08T17:39:56.601Z,20.58
2023-04-08T17:42:24.421Z,22.23
2023-04-08T17:44:51.361Z,23.35
2023-04-08T17:47:18.417Z,31.08
2023-04-08T17:49:45.319Z,24.95
2023-04-08T17:52:13.208Z,25.98
2023-04-08T17:54:41.543Z,29.92
2023-04-08T17:57:08.421Z,26.98
2023-04-08T17:59:35.529Z,28.35
2023-04-08T18:02:02.963Z,31.27
2023-04-08T18:04:30.661Z,26.55
2023-04-08T18:06:57.966Z,27.55
2023-04-08T18:09:24.967Z,26.42
2023-04-08T18:11:51.996Z,27.02
2023-04-08T18:14:19.090Z,26.10
2023-04-08T18:16:46.007Z,27.55
2023-04-08T18:19:13.538Z,26.95
2023-04-08T18:21:40.715Z,23.10
2023-04-08T18:24:09.212Z,27.52
2023-04-08T18:26:37.079Z,26.30
2023-04-08T18:29:04.205Z,28.67
2023-04-08T18:31:31.274Z,28.70
2023-04-08T18:33:58.279Z,28.80
2023-04-08T18:36:26.655Z,28.38
2023-04-08T18:38:53.658Z,26.05
2023-04-08T18:41:20.996Z,27.00
2023-04-08T18:43:48.144Z,27.73
2023-04-08T18:46:15.378Z,31.08
2023-04-08T18:48:42.461Z,26.05
2023-04-08T18:51:09.448Z,26.08
2023-04-08T18:53:36.525Z,27.10
2023-04-08T18:56:03.608Z,28.90
2023-04-08T18:58:31.930Z,30.45
2023-04-08T19:00:59.089Z,29.38
2023-04-08T19:03:27.098Z,31.40
2023-04-08T19:05:54.194Z,26.35
2023-04-08T19:08:21.104Z,26.23
2023-04-08T19:10:48.245Z,27.73
2023-04-08T19:13:15.498Z,26.33
2023-04-08T19:15:43.036Z,26.85
2023-04-08T19:18:10.219Z,28.95
2023-04-08T19:20:37.791Z,27.35
2023-04-08T19:23:05.972Z,29.90
2023-04-08T19:25:33.709Z,31.55
2023-04-08T19:28:00.733Z,26.45
2023-04-08T19:30:27.711Z,28.77
2023-04-08T19:32:55.120Z,26.77
2023-04-08T19:35:22.415Z,24.55
2023-04-08T19:37:49.747Z,29.60
2023-04-08T19:40:16.962Z,24.63
2023-04-08T19:42:44.673Z,24.83
2023-04-08T19:45:12.269Z,25.50
2023-04-08T19:47:43.297Z,24.27
2023-04-08T19:50:13.225Z,24.45
2023-04-08T19:52:40.413Z,25.33
2023-04-08T19:55:10.217Z,24.67
2023-04-08T19:57:37.404Z,26.90
2023-04-08T20:00:04.766Z,28.38
2023-04-08T20:02:33.616Z,29.00
2023-04-08T20:05:01.979Z,27.00
2023-04-08T20:07:29.083Z,28.75
2023-04-08T20:09:56.079Z,25.30
2023-04-08T20:12:23.408Z,23.98
2023-04-08T20:14:50.502Z,27.63
2023-04-08T20:17:17.891Z,27.67
2023-04-08T20:19:46.417Z,27.58
2023-04-08T20:22:13.347Z,26.13
2023-04-08T20:24:40.394Z,25.00
2023-04-08T20:27:07.468Z,27.70
2023-04-08T20:29:34.813Z,26.20
2023-04-08T20:32:01.883Z,27.75
2023-04-08T20:34:28.954Z,28.20
2023-04-08T20:36:56.322Z,32.25
2023-04-08T20:39:31.391Z,30.60
2023-04-08T20:41:58.965Z,31.02
2023-04-08T20:44:27.950Z,29.25
2023-04-08T20:46:54.914Z,30.88
2023-04-08T20:49:22.147Z,35.55
2023-04-08T20:51:49.500Z,30.00
2023-04-08T20:54:17.832Z,33.00
2023-04-08T20:56:45.751Z,29.27
2023-04-08T20:59:12.810Z,34.15
2023-04-08T21:01:39.894Z,32.40
2023-04-08T21:04:09.798Z,33.75
2023-04-08T21:06:37.549Z,35.10
2023-04-08T21:09:04.629Z,36.83
2023-04-08T21:11:31.701Z,33.40
2023-04-08T21:13:58.673Z,36.33
2023-04-08T21:16:25.560Z,34.10
2023-04-08T21:18:52.769Z,35.42
2023-04-08T21:21:20.280Z,36.05
2023-04-08T21:23:47.531Z,32.03
2023-04-08T21:26:14.845Z,33.47
2023-04-08T21:28:41.903Z,34.58
2023-04-08T21:31:13.231Z,37.53
2023-04-08T21:33:40.750Z,37.40
2023-04-08T21:36:07.997Z,41.35
2023-04-08T21:38:35.341Z,34.03
2023-04-08T21:41:02.434Z,40.35
2023-04-08T21:43:29.503Z,38.97
2023-04-08T21:45:56.920Z,35.90
2023-04-08T21:48:24.173Z,39.80
2023-04-08T21:50:51.042Z,38.17
2023-04-08T21:53:18.102Z,37.55
2023-04-08T21:55:45.323Z,40.15
2023-04-08T21:58:12.672Z,40.65
2023-04-08T22:00:39.914Z,41.45
2023-04-08T22:03:07.586Z,42.08
2023-04-08T22:05:35.454Z,41.38
2023-04-08T22:08:02.643Z,42.47
2023-04-08T22:10:29.900Z,44.22
2023-04-08T22:12:56.815Z,46.42
2023-04-08T22:15:24.137Z,43.05
2023-04-08T22:17:51.526Z,47.95
2023-04-08T22:20:18.855Z,43.30
2023-04-08T22:22:45.869Z,48.80
2023-04-08T22:25:13.250Z,46.42
2023-04-08T22:27:40.293Z,47.47
2023-04-08T22:30:08.163Z,47.35
2023-04-08T22:32:35.248Z,44.63
2023-04-08T22:35:02.584Z,48.85
2023-04-08T22:37:29.677Z,50.00
2023-04-08T22:40:01.625Z,44.15
2023-04-08T22:42:28.996Z,44.88
2023-04-08T22:44:56.204Z,47.85
2023-04-08T22:47:23.290Z,48.97
2023-04-08T22:49:50.434Z,48.42
2023-04-08T22:52:17.893Z,46.72
2023-04-08T22:54:44.922Z,50.88
2023-04-08T22:57:11.971Z,48.80
2023-04-08T22:59:38.927Z,49.30
2023-04-08T23:02:08.394Z,49.63
2023-04-08T23:04:35.596Z,49.58
2023-04-08T23:07:02.573Z,51.35
2023-04-08T23:09:29.601Z,50.05
2023-04-08T23:11:57.418Z,52.38
2023-04-08T23:14:24.789Z,52.25
2023-04-08T23:16:51.842Z,50.95
2023-04-08T23:19:18.929Z,44.50
2023-04-08T23:21:46.046Z,45.38
2023-04-08T23:24:12.920Z,41.17
2023-04-08T23:26:40.624Z,48.13
2023-04-08T23:29:07.618Z,47.80
2023-04-08T23:31:34.950Z,42.85
2023-04-08T23:34:02.064Z,50.53
2023-04-08T23:36:28.977Z,49.50
2023-04-08T23:38:56.151Z,45.72
2023-04-08T23:41:23.050Z,49.22
2023-04-08T23:43:50.225Z,68.25
2023-04-08T23:46:17.251Z,62.53
2023-04-08T23:48:44.260Z,63.75
2023-04-08T23:51:11.865Z,62.13
2023-04-08T23:53:38.938Z,55.70
2023-04-08T23:56:07.613Z,59.63
2023-04-08T23:58:35.290Z,56.08
